sensor_id;sensor_type;location;lat;lon;timestamp;pressure;altitude;pressure_sealevel;temperature;humidity
62402;BME280;48440;51.224;22.506;2023-12-29T00:00:26;99030.94;;;4.42;78.15
62402;BME280;48440;51.224;22.506;2023-12-29T00:02:51;99035.75;;;4.40;78.05
62402;BME280;48440;51.224;22.506;2023-12-29T00:05:17;99040.28;;;4.39;78.11
62402;BME280;48440;51.224;22.506;2023-12-29T00:07:42;99033.50;;;4.37;78.45
62402;BME280;48440;51.224;22.506;2023-12-29T00:10:08;99028.56;;;4.34;78.13
62402;BME280;48440;51.224;22.506;2023-12-29T00:12:34;99040.72;;;4.36;78.13
62402;BME280;48440;51.224;22.506;2023-12-29T00:14:59;99044.22;;;4.37;78.25
62402;BME280;48440;51.224;22.506;2023-12-29T00:17:25;99049.81;;;4.35;78.33
62402;BME280;48440;51.224;22.506;2023-12-29T00:19:50;99045.28;;;4.36;77.91
62402;BME280;48440;51.224;22.506;2023-12-29T00:22:16;99046.47;;;4.40;77.98
62402;BME280;48440;51.224;22.506;2023-12-29T00:24:41;99042.16;;;4.39;78.28
62402;BME280;48440;51.224;22.506;2023-12-29T00:27:07;99050.66;;;4.36;78.17
62402;BME280;48440;51.224;22.506;2023-12-29T00:29:33;99045.88;;;4.38;78.58
62402;BME280;48440;51.224;22.506;2023-12-29T00:31:59;99047.75;;;4.37;78.59
62402;BME280;48440;51.224;22.506;2023-12-29T00:34:28;99041.38;;;4.32;78.30
62402;BME280;48440;51.224;22.506;2023-12-29T00:36:54;99035.63;;;4.28;78.45
62402;BME280;48440;51.224;22.506;2023-12-29T00:39:19;99036.88;;;4.26;78.60
62402;BME280;48440;51.224;22.506;2023-12-29T00:41:53;99039.41;;;4.21;78.35
62402;BME280;48440;51.224;22.506;2023-12-29T00:44:19;99037.53;;;4.21;78.64
62402;BME280;48440;51.224;22.506;2023-12-29T00:46:44;99034.69;;;4.16;78.87
62402;BME280;48440;51.224;22.506;2023-12-29T00:49:10;99043.22;;;4.13;78.76
62402;BME280;48440;51.224;22.506;2023-12-29T00:51:39;99041.16;;;4.08;78.62
62402;BME280;48440;51.224;22.506;2023-12-29T00:54:06;99038.50;;;4.08;79.15
62402;BME280;48440;51.224;22.506;2023-12-29T00:56:32;99029.88;;;4.00;79.24
62402;BME280;48440;51.224;22.506;2023-12-29T00:58:57;99024.28;;;4.01;79.29
62402;BME280;48440;51.224;22.506;2023-12-29T01:01:23;99022.41;;;4.02;79.42
62402;BME280;48440;51.224;22.506;2023-12-29T01:03:48;99020.16;;;3.99;79.58
62402;BME280;48440;51.224;22.506;2023-12-29T01:06:14;99025.38;;;3.94;79.75
62402;BME280;48440;51.224;22.506;2023-12-29T01:08:40;99022.84;;;3.99;79.70
62402;BME280;48440;51.224;22.506;2023-12-29T01:11:05;99016.44;;;4.00;80.16
62402;BME280;48440;51.224;22.506;2023-12-29T01:13:31;99014.63;;;3.94;80.31
62402;BME280;48440;51.224;22.506;2023-12-29T01:15:57;99015.03;;;3.97;79.93
62402;BME280;48440;51.224;22.506;2023-12-29T01:18:22;99010.47;;;3.98;80.31
62402;BME280;48440;51.224;22.506;2023-12-29T01:20:48;99003.66;;;3.95;79.75
62402;BME280;48440;51.224;22.506;2023-12-29T01:23:13;99001.00;;;3.95;80.22
62402;BME280;48440;51.224;22.506;2023-12-29T01:25:39;98994.78;;;3.95;80.12
62402;BME280;48440;51.224;22.506;2023-12-29T01:28:04;98995.63;;;3.95;80.08
62402;BME280;48440;51.224;22.506;2023-12-29T01:30:30;98995.63;;;3.95;79.96
62402;BME280;48440;51.224;22.506;2023-12-29T01:32:56;99002.84;;;3.95;80.59
62402;BME280;48440;51.224;22.506;2023-12-29T01:35:21;99012.97;;;3.93;79.92
62402;BME280;48440;51.224;22.506;2023-12-29T01:37:47;99018.34;;;3.93;80.20
62402;BME280;48440;51.224;22.506;2023-12-29T01:40:12;99017.53;;;3.92;80.08
62402;BME280;48440;51.224;22.506;2023-12-29T01:42:38;99017.53;;;3.92;80.12
62402;BME280;48440;51.224;22.506;2023-12-29T01:45:05;99012.97;;;3.93;80.13
62402;BME280;48440;51.224;22.506;2023-12-29T01:47:31;99013.38;;;3.96;80.00
62402;BME280;48440;51.224;22.506;2023-12-29T01:49:57;99015.22;;;3.96;80.16
62402;BME280;48440;51.224;22.506;2023-12-29T01:52:23;99008.22;;;3.95;79.87
62402;BME280;48440;51.224;22.506;2023-12-29T01:54:49;98999.78;;;3.91;80.03
62402;BME280;48440;51.224;22.506;2023-12-29T01:57:16;99000.03;;;3.90;80.25
62402;BME280;48440;51.224;22.506;2023-12-29T01:59:42;98998.94;;;3.91;80.13
62402;BME280;48440;51.224;22.506;2023-12-29T02:02:10;98995.09;;;3.87;79.89
62402;BME280;48440;51.224;22.506;2023-12-29T02:04:36;98998.81;;;3.86;80.33
62402;BME280;48440;51.224;22.506;2023-12-29T02:07:02;98989.75;;;3.80;80.08
62402;BME280;48440;51.224;22.506;2023-12-29T02:09:28;98987.06;;;3.80;80.73
62402;BME280;48440;51.224;22.506;2023-12-29T02:11:54;98981.72;;;3.80;80.25
62402;BME280;48440;51.224;22.506;2023-12-29T02:14:20;98984.84;;;3.77;80.19
62402;BME280;48440;51.224;22.506;2023-12-29T02:16:54;98980.06;;;3.79;80.25
62402;BME280;48440;51.224;22.506;2023-12-29T02:19:41;98972.22;;;3.78;80.76
62402;BME280;48440;51.224;22.506;2023-12-29T02:22:09;98961.09;;;3.74;80.70
62402;BME280;48440;51.224;22.506;2023-12-29T02:24:36;98952.63;;;3.77;81.06
62402;BME280;48440;51.224;22.506;2023-12-29T02:30:01;98954.25;;;3.78;81.10
62402;BME280;48440;51.224;22.506;2023-12-29T02:32:30;98954.47;;;3.77;80.72
62402;BME280;48440;51.224;22.506;2023-12-29T02:34:57;98960.47;;;3.79;80.59
62402;BME280;48440;51.224;22.506;2023-12-29T02:37:24;98960.88;;;3.75;80.59
62402;BME280;48440;51.224;22.506;2023-12-29T02:39:51;98945.00;;;3.74;80.53
62402;BME280;48440;51.224;22.506;2023-12-29T02:42:17;98945.44;;;3.71;80.73
62402;BME280;48440;51.224;22.506;2023-12-29T02:44:43;98942.16;;;3.69;80.65
62402;BME280;48440;51.224;22.506;2023-12-29T02:47:08;98933.66;;;3.72;81.07
62402;BME280;48440;51.224;22.506;2023-12-29T02:49:34;98926.44;;;3.72;81.08
62402;BME280;48440;51.224;22.506;2023-12-29T02:51:59;98922.75;;;3.67;81.34
62402;BME280;48440;51.224;22.506;2023-12-29T02:54:25;98917.59;;;3.65;81.04
62402;BME280;48440;51.224;22.506;2023-12-29T02:56:50;98927.53;;;3.65;81.62
62402;BME280;48440;51.224;22.506;2023-12-29T02:59:16;98922.75;;;3.67;81.02
62402;BME280;48440;51.224;22.506;2023-12-29T03:01:41;98921.56;;;3.63;81.49
62402;BME280;48440;51.224;22.506;2023-12-29T03:04:07;98926.94;;;3.63;81.33
62402;BME280;48440;51.224;22.506;2023-12-29T03:06:32;98929.38;;;3.64;81.20
62402;BME280;48440;51.224;22.506;2023-12-29T03:08:58;98929.16;;;3.66;81.23
62402;BME280;48440;51.224;22.506;2023-12-29T03:11:24;98917.03;;;3.63;81.34
62402;BME280;48440;51.224;22.506;2023-12-29T03:13:49;98911.41;;;3.65;81.44
62402;BME280;48440;51.224;22.506;2023-12-29T03:16:15;98910.97;;;3.68;81.39
62402;BME280;48440;51.224;22.506;2023-12-29T03:18:40;98918.22;;;3.67;81.19
62402;BME280;48440;51.224;22.506;2023-12-29T03:21:07;98915.97;;;3.64;81.45
62402;BME280;48440;51.224;22.506;2023-12-29T03:23:33;98914.09;;;3.65;81.52
62402;BME280;48440;51.224;22.506;2023-12-29T03:25:59;98908.28;;;3.68;81.13
62402;BME280;48440;51.224;22.506;2023-12-29T03:28:24;98905.00;;;3.66;81.39
62402;BME280;48440;51.224;22.506;2023-12-29T03:30:50;98907.69;;;3.66;81.45
62402;BME280;48440;51.224;22.506;2023-12-29T03:33:15;98899.03;;;3.64;81.30
62402;BME280;48440;51.224;22.506;2023-12-29T03:35:41;98899.88;;;3.64;81.07
62402;BME280;48440;51.224;22.506;2023-12-29T03:38:06;98896.00;;;3.60;81.07
62402;BME280;48440;51.224;22.506;2023-12-29T03:40:32;98888.31;;;3.64;81.17
62402;BME280;48440;51.224;22.506;2023-12-29T03:42:57;98896.81;;;3.61;81.51
62402;BME280;48440;51.224;22.506;2023-12-29T03:45:23;98892.09;;;3.56;81.62
62402;BME280;48440;51.224;22.506;2023-12-29T03:47:49;98893.38;;;3.54;81.85
62402;BME280;48440;51.224;22.506;2023-12-29T03:50:14;98886.34;;;3.53;81.43
62402;BME280;48440;51.224;22.506;2023-12-29T03:52:40;98871.06;;;3.53;81.94
62402;BME280;48440;51.224;22.506;2023-12-29T03:55:06;98869.22;;;3.54;81.71
62402;BME280;48440;51.224;22.506;2023-12-29T03:57:31;98867.34;;;3.54;81.85
62402;BME280;48440;51.224;22.506;2023-12-29T03:59:57;98867.13;;;3.56;81.99
62402;BME280;48440;51.224;22.506;2023-12-29T04:02:22;98870.03;;;3.54;81.83
62402;BME280;48440;51.224;22.506;2023-12-29T04:04:48;98868.41;;;3.53;82.22
62402;BME280;48440;51.224;22.506;2023-12-29T04:07:13;98877.88;;;3.56;82.34
62402;BME280;48440;51.224;22.506;2023-12-29T04:09:39;98874.16;;;3.57;82.22
62402;BME280;48440;51.224;22.506;2023-12-29T04:12:05;98889.81;;;3.60;81.95
62402;BME280;48440;51.224;22.506;2023-12-29T04:14:30;98873.72;;;3.60;82.18
62402;BME280;48440;51.224;22.506;2023-12-29T04:16:56;98875.34;;;3.61;82.03
62402;BME280;48440;51.224;22.506;2023-12-29T04:19:21;98867.09;;;3.62;82.49
62402;BME280;48440;51.224;22.506;2023-12-29T04:21:47;98871.63;;;3.62;82.56
62402;BME280;48440;51.224;22.506;2023-12-29T04:24:13;98871.41;;;3.63;82.42
62402;BME280;48440;51.224;22.506;2023-12-29T04:26:38;98871.41;;;3.63;82.60
62402;BME280;48440;51.224;22.506;2023-12-29T04:29:04;98871.97;;;3.65;82.56
62402;BME280;48440;51.224;22.506;2023-12-29T04:31:29;98879.47;;;3.63;82.41
62402;BME280;48440;51.224;22.506;2023-12-29T04:33:55;98878.19;;;3.66;82.71
62402;BME280;48440;51.224;22.506;2023-12-29T04:36:21;98878.88;;;3.61;82.39
62402;BME280;48440;51.224;22.506;2023-12-29T04:38:46;98874.31;;;3.62;82.71
62402;BME280;48440;51.224;22.506;2023-12-29T04:41:12;98870.34;;;3.64;82.45
62402;BME280;48440;51.224;22.506;2023-12-29T04:43:38;98877.34;;;3.65;82.89
62402;BME280;48440;51.224;22.506;2023-12-29T04:46:04;98875.28;;;3.67;82.32
62402;BME280;48440;51.224;22.506;2023-12-29T04:48:30;98880.19;;;3.70;82.42
62402;BME280;48440;51.224;22.506;2023-12-29T04:50:56;98882.28;;;3.68;82.41
62402;BME280;48440;51.224;22.506;2023-12-29T04:53:21;98879.81;;;3.67;82.78
62402;BME280;48440;51.224;22.506;2023-12-29T04:55:47;98871.78;;;3.67;82.62
62402;BME280;48440;51.224;22.506;2023-12-29T04:58:12;98875.28;;;3.67;82.75
62402;BME280;48440;51.224;22.506;2023-12-29T05:00:38;98873.63;;;3.66;83.00
62402;BME280;48440;51.224;22.506;2023-12-29T05:03:04;98879.00;;;3.66;82.84
62402;BME280;48440;51.224;22.506;2023-12-29T05:05:29;98872.22;;;3.64;82.91
62402;BME280;48440;51.224;22.506;2023-12-29T05:07:55;98869.78;;;3.62;83.39
62402;BME280;48440;51.224;22.506;2023-12-29T05:10:21;98868.13;;;3.61;83.41
62402;BME280;48440;51.224;22.506;2023-12-29T05:12:46;98871.84;;;3.60;83.72
62402;BME280;48440;51.224;22.506;2023-12-29T05:15:12;98873.28;;;3.63;83.43
62402;BME280;48440;51.224;22.506;2023-12-29T05:17:37;98869.53;;;3.64;83.36
62402;BME280;48440;51.224;22.506;2023-12-29T05:20:06;98866.84;;;3.64;83.50
62402;BME280;48440;51.224;22.506;2023-12-29T05:22:35;98861.47;;;3.64;83.62
62402;BME280;48440;51.224;22.506;2023-12-29T05:25:00;98862.91;;;3.66;83.23
62402;BME280;48440;51.224;22.506;2023-12-29T05:27:26;98871.97;;;3.65;83.50
62402;BME280;48440;51.224;22.506;2023-12-29T05:29:52;98876.78;;;3.63;83.89
62402;BME280;48440;51.224;22.506;2023-12-29T05:32:18;98873.72;;;3.60;83.32
62402;BME280;48440;51.224;22.506;2023-12-29T05:34:43;98870.44;;;3.58;83.78
62402;BME280;48440;51.224;22.506;2023-12-29T05:37:09;98860.13;;;3.55;83.90
62402;BME280;48440;51.224;22.506;2023-12-29T05:39:34;98865.72;;;3.53;83.95
62402;BME280;48440;51.224;22.506;2023-12-29T05:42:00;98870.84;;;3.55;84.17
62402;BME280;48440;51.224;22.506;2023-12-29T05:44:25;98875.41;;;3.54;84.13
62402;BME280;48440;51.224;22.506;2023-12-29T05:46:51;98870.47;;;3.51;84.18
62402;BME280;48440;51.224;22.506;2023-12-29T05:49:16;98872.94;;;3.53;84.05
62402;BME280;48440;51.224;22.506;2023-12-29T05:51:43;98869.44;;;3.52;84.37
62402;BME280;48440;51.224;22.506;2023-12-29T05:54:09;98871.69;;;3.55;84.14
62402;BME280;48440;51.224;22.506;2023-12-29T05:56:34;98857.22;;;3.56;84.53
62402;BME280;48440;51.224;22.506;2023-12-29T05:59:00;98858.66;;;3.59;84.34
62402;BME280;48440;51.224;22.506;2023-12-29T06:01:25;98861.78;;;3.56;84.21
62402;BME280;48440;51.224;22.506;2023-12-29T06:03:51;98866.91;;;3.57;84.55
62402;BME280;48440;51.224;22.506;2023-12-29T06:06:20;98866.31;;;3.55;84.19
62402;BME280;48440;51.224;22.506;2023-12-29T06:08:45;98862.59;;;3.56;84.60
62402;BME280;48440;51.224;22.506;2023-12-29T06:11:15;98859.69;;;3.58;84.79
62402;BME280;48440;51.224;22.506;2023-12-29T06:13:41;98864.03;;;3.59;85.00
62402;BME280;48440;51.224;22.506;2023-12-29T06:16:07;98866.69;;;3.59;84.50
62402;BME280;48440;51.224;22.506;2023-12-29T06:18:33;98869.38;;;3.59;84.52
62402;BME280;48440;51.224;22.506;2023-12-29T06:20:58;98862.38;;;3.58;85.08
62402;BME280;48440;51.224;22.506;2023-12-29T06:23:24;98872.06;;;3.59;85.16
62402;BME280;48440;51.224;22.506;2023-12-29T06:25:51;98862.97;;;3.60;84.99
62402;BME280;48440;51.224;22.506;2023-12-29T06:28:16;98875.13;;;3.62;84.59
62402;BME280;48440;51.224;22.506;2023-12-29T06:30:42;98878.66;;;3.63;85.52
62402;BME280;48440;51.224;22.506;2023-12-29T06:33:07;98873.84;;;3.65;85.42
62402;BME280;48440;51.224;22.506;2023-12-29T06:35:33;98874.00;;;3.70;85.33
62402;BME280;48440;51.224;22.506;2023-12-29T06:37:59;98861.41;;;3.70;85.60
62402;BME280;48440;51.224;22.506;2023-12-29T06:40:24;98863.66;;;3.73;85.18
62402;BME280;48440;51.224;22.506;2023-12-29T06:42:50;98856.81;;;3.78;85.44
62402;BME280;48440;51.224;22.506;2023-12-29T06:45:16;98861.38;;;3.77;85.48
62402;BME280;48440;51.224;22.506;2023-12-29T06:47:41;98850.41;;;3.79;85.61
62402;BME280;48440;51.224;22.506;2023-12-29T06:50:07;98853.47;;;3.82;85.21
62402;BME280;48440;51.224;22.506;2023-12-29T06:52:37;98855.72;;;3.85;85.68
62402;BME280;48440;51.224;22.506;2023-12-29T06:55:03;98854.47;;;3.88;85.41
62402;BME280;48440;51.224;22.506;2023-12-29T06:57:29;98852.59;;;3.88;85.34
62402;BME280;48440;51.224;22.506;2023-12-29T06:59:54;98858.31;;;3.92;84.92
62402;BME280;48440;51.224;22.506;2023-12-29T07:02:20;98849.59;;;3.96;85.15
62402;BME280;48440;51.224;22.506;2023-12-29T07:04:46;98850.56;;;4.02;85.16
62402;BME280;48440;51.224;22.506;2023-12-29T07:07:11;98849.69;;;4.08;85.30
62402;BME280;48440;51.224;22.506;2023-12-29T07:09:40;98846.78;;;4.09;84.63
62402;BME280;48440;51.224;22.506;2023-12-29T07:12:06;98851.47;;;4.14;85.23
62402;BME280;48440;51.224;22.506;2023-12-29T07:14:31;98846.22;;;4.19;84.96
62402;BME280;48440;51.224;22.506;2023-12-29T07:16:57;98842.50;;;4.20;84.55
62402;BME280;48440;51.224;22.506;2023-12-29T07:19:23;98842.88;;;4.24;84.92
62402;BME280;48440;51.224;22.506;2023-12-29T07:21:51;98851.91;;;4.29;85.20
62402;BME280;48440;51.224;22.506;2023-12-29T07:24:17;98847.59;;;4.28;84.91
62402;BME280;48440;51.224;22.506;2023-12-29T07:26:43;98851.31;;;4.27;84.62
62402;BME280;48440;51.224;22.506;2023-12-29T07:29:08;98854.22;;;4.26;85.24
62402;BME280;48440;51.224;22.506;2023-12-29T07:31:38;98855.88;;;4.27;85.04
62402;BME280;48440;51.224;22.506;2023-12-29T07:34:04;98865.13;;;4.31;84.89
62402;BME280;48440;51.224;22.506;2023-12-29T07:36:29;98862.88;;;4.28;85.57
62402;BME280;48440;51.224;22.506;2023-12-29T07:38:55;98855.19;;;4.31;85.47
62402;BME280;48440;51.224;22.506;2023-12-29T07:41:20;98852.28;;;4.33;85.48
62402;BME280;48440;51.224;22.506;2023-12-29T07:43:46;98847.28;;;4.36;85.79
62402;BME280;48440;51.224;22.506;2023-12-29T07:46:11;98854.44;;;4.42;85.38
62402;BME280;48440;51.224;22.506;2023-12-29T07:48:37;98849.41;;;4.46;86.05
62402;BME280;48440;51.224;22.506;2023-12-29T07:51:06;98846.50;;;4.48;86.04
62402;BME280;48440;51.224;22.506;2023-12-29T07:53:31;98841.50;;;4.51;86.29
62402;BME280;48440;51.224;22.506;2023-12-29T07:55:57;98855.09;;;4.56;86.30
62402;BME280;48440;51.224;22.506;2023-12-29T07:58:22;98855.00;;;4.63;86.25
62402;BME280;48440;51.224;22.506;2023-12-29T08:00:48;98858.88;;;4.67;85.90
62402;BME280;48440;51.224;22.506;2023-12-29T08:03:13;98852.81;;;4.71;86.25
62402;BME280;48440;51.224;22.506;2023-12-29T08:05:39;98840.69;;;4.81;85.81
62402;BME280;48440;51.224;22.506;2023-12-29T08:08:05;98847.63;;;4.88;86.03
62402;BME280;48440;51.224;22.506;2023-12-29T08:10:31;98858.25;;;4.95;85.51
62402;BME280;48440;51.224;22.506;2023-12-29T08:12:57;98848.25;;;5.02;85.58
62402;BME280;48440;51.224;22.506;2023-12-29T08:15:23;98848.28;;;5.14;84.69
62402;BME280;48440;51.224;22.506;2023-12-29T08:17:48;98850.28;;;5.18;84.89
62402;BME280;48440;51.224;22.506;2023-12-29T08:20:14;98851.13;;;5.30;84.40
62402;BME280;48440;51.224;22.506;2023-12-29T08:22:39;98852.44;;;5.39;83.79
62402;BME280;48440;51.224;22.506;2023-12-29T08:25:05;98847.28;;;5.50;83.53
62402;BME280;48440;51.224;22.506;2023-12-29T08:27:31;98852.09;;;5.59;83.01
62402;BME280;48440;51.224;22.506;2023-12-29T08:29:56;98846.00;;;5.64;82.53
62402;BME280;48440;51.224;22.506;2023-12-29T08:32:22;98839.69;;;5.58;82.24
62402;BME280;48440;51.224;22.506;2023-12-29T08:34:48;98848.09;;;5.50;82.59
62402;BME280;48440;51.224;22.506;2023-12-29T08:37:13;98845.16;;;5.52;83.03
62402;BME280;48440;51.224;22.506;2023-12-29T08:39:47;98835.25;;;5.64;82.57
62402;BME280;48440;51.224;22.506;2023-12-29T08:42:14;98829.84;;;5.75;82.22
62402;BME280;48440;51.224;22.506;2023-12-29T08:44:40;98835.84;;;5.89;81.96
62402;BME280;48440;51.224;22.506;2023-12-29T08:47:05;98839.34;;;6.01;81.36
62402;BME280;48440;51.224;22.506;2023-12-29T08:49:36;98830.66;;;6.11;80.90
62402;BME280;48440;51.224;22.506;2023-12-29T08:52:03;98834.41;;;6.22;80.45
62402;BME280;48440;51.224;22.506;2023-12-29T08:54:29;98833.88;;;6.48;79.56
62402;BME280;48440;51.224;22.506;2023-12-29T08:56:54;98834.97;;;6.92;78.76
62402;BME280;48440;51.224;22.506;2023-12-29T08:59:20;98832.63;;;7.29;76.43
62402;BME280;48440;51.224;22.506;2023-12-29T09:01:45;98841.56;;;7.46;75.28
62402;BME280;48440;51.224;22.506;2023-12-29T09:04:12;98836.97;;;7.64;74.23
62402;BME280;48440;51.224;22.506;2023-12-29T09:06:38;98834.59;;;7.67;73.75
62402;BME280;48440;51.224;22.506;2023-12-29T09:09:03;98837.25;;;8.01;72.38
62402;BME280;48440;51.224;22.506;2023-12-29T09:11:29;98835.72;;;8.48;70.29
62402;BME280;48440;51.224;22.506;2023-12-29T09:13:55;98836.59;;;8.76;68.58
62402;BME280;48440;51.224;22.506;2023-12-29T09:16:20;98832.56;;;9.32;66.66
62402;BME280;48440;51.224;22.506;2023-12-29T09:18:46;98831.69;;;10.01;65.39
62402;BME280;48440;51.224;22.506;2023-12-29T09:21:12;98829.03;;;10.73;62.59
62402;BME280;48440;51.224;22.506;2023-12-29T09:23:38;98834.56;;;11.04;61.23
62402;BME280;48440;51.224;22.506;2023-12-29T09:26:04;98826.66;;;10.97;60.87
62402;BME280;48440;51.224;22.506;2023-12-29T09:28:32;98816.00;;;10.65;61.40
62402;BME280;48440;51.224;22.506;2023-12-29T09:30:58;98811.41;;;10.08;62.62
62402;BME280;48440;51.224;22.506;2023-12-29T09:33:23;98809.09;;;9.85;63.74
62402;BME280;48440;51.224;22.506;2023-12-29T09:35:50;98811.72;;;9.38;65.52
62402;BME280;48440;51.224;22.506;2023-12-29T09:38:16;98800.94;;;9.11;67.05
62402;BME280;48440;51.224;22.506;2023-12-29T09:40:41;98814.88;;;8.71;68.28
62402;BME280;48440;51.224;22.506;2023-12-29T09:43:08;98803.31;;;8.32;69.59
62402;BME280;48440;51.224;22.506;2023-12-29T09:45:37;98795.19;;;7.88;71.71
62402;BME280;48440;51.224;22.506;2023-12-29T09:48:11;98802.59;;;7.76;72.13
62402;BME280;48440;51.224;22.506;2023-12-29T09:50:38;98809.63;;;7.60;72.90
62402;BME280;48440;51.224;22.506;2023-12-29T09:53:05;98810.88;;;7.36;73.93
62402;BME280;48440;51.224;22.506;2023-12-29T09:55:32;98794.50;;;7.09;75.10
62402;BME280;48440;51.224;22.506;2023-12-29T09:57:59;98807.16;;;6.92;75.56
62402;BME280;48440;51.224;22.506;2023-12-29T10:00:26;98798.78;;;6.76;76.68
62402;BME280;48440;51.224;22.506;2023-12-29T10:02:52;98794.63;;;6.69;77.18
62402;BME280;48440;51.224;22.506;2023-12-29T10:05:19;98791.22;;;6.73;76.52
62402;BME280;48440;51.224;22.506;2023-12-29T10:07:45;98783.03;;;6.68;76.90
62402;BME280;48440;51.224;22.506;2023-12-29T10:10:15;98788.00;;;6.76;77.29
62402;BME280;48440;51.224;22.506;2023-12-29T10:12:43;98790.06;;;6.69;77.57
62402;BME280;48440;51.224;22.506;2023-12-29T10:21:02;98800.41;;;6.61;78.49
62402;BME280;48440;51.224;22.506;2023-12-29T10:23:41;98800.06;;;6.57;77.98
62402;BME280;48440;51.224;22.506;2023-12-29T10:26:11;98799.72;;;6.54;78.27
62402;BME280;48440;51.224;22.506;2023-12-29T10:28:36;98805.59;;;6.51;78.28
62402;BME280;48440;51.224;22.506;2023-12-29T10:31:04;98793.59;;;6.58;78.75
62402;BME280;48440;51.224;22.506;2023-12-29T10:33:30;98793.09;;;6.90;77.59
62402;BME280;48440;51.224;22.506;2023-12-29T10:36:02;98787.75;;;7.23;76.10
62402;BME280;48440;51.224;22.506;2023-12-29T10:38:29;98788.78;;;7.39;75.81
62402;BME280;48440;51.224;22.506;2023-12-29T10:41:13;98775.47;;;7.49;74.99
62402;BME280;48440;51.224;22.506;2023-12-29T10:43:40;98776.84;;;7.52;74.83
62402;BME280;48440;51.224;22.506;2023-12-29T10:46:10;98772.16;;;7.64;74.47
62402;BME280;48440;51.224;22.506;2023-12-29T10:48:37;98759.16;;;7.82;73.43
62402;BME280;48440;51.224;22.506;2023-12-29T10:51:03;98753.41;;;7.96;72.86
62402;BME280;48440;51.224;22.506;2023-12-29T10:53:33;98756.63;;;8.14;71.92
62402;BME280;48440;51.224;22.506;2023-12-29T10:55:59;98746.50;;;8.27;71.83
62402;BME280;48440;51.224;22.506;2023-12-29T10:58:26;98750.53;;;8.46;71.14
62402;BME280;48440;51.224;22.506;2023-12-29T11:00:58;98746.06;;;8.57;69.97
62402;BME280;48440;51.224;22.506;2023-12-29T11:03:25;98739.25;;;8.81;69.47
62402;BME280;48440;51.224;22.506;2023-12-29T11:05:58;98742.66;;;8.98;69.41
62402;BME280;48440;51.224;22.506;2023-12-29T11:08:27;98732.84;;;9.24;68.08
62402;BME280;48440;51.224;22.506;2023-12-29T11:10:54;98728.09;;;9.46;67.33
62402;BME280;48440;51.224;22.506;2023-12-29T11:13:20;98725.78;;;9.60;65.65
62402;BME280;48440;51.224;22.506;2023-12-29T11:15:46;98727.00;;;9.42;66.82
62402;BME280;48440;51.224;22.506;2023-12-29T11:18:17;98723.13;;;9.28;67.85
62402;BME280;48440;51.224;22.506;2023-12-29T11:20:44;98722.81;;;9.25;67.25
62402;BME280;48440;51.224;22.506;2023-12-29T11:23:10;98724.72;;;9.24;66.51
62402;BME280;48440;51.224;22.506;2023-12-29T11:25:39;98725.44;;;9.09;67.97
62402;BME280;48440;51.224;22.506;2023-12-29T11:28:10;98723.44;;;9.00;68.21
62402;BME280;48440;51.224;22.506;2023-12-29T11:30:38;98717.47;;;8.98;68.88
62402;BME280;48440;51.224;22.506;2023-12-29T11:33:29;98724.22;;;8.95;68.24
62402;BME280;48440;51.224;22.506;2023-12-29T11:38:43;98712.88;;;8.98;68.88
62402;BME280;48440;51.224;22.506;2023-12-29T11:41:31;98709.81;;;8.90;68.95
62402;BME280;48440;51.224;22.506;2023-12-29T11:44:00;98713.28;;;8.85;69.04
62402;BME280;48440;51.224;22.506;2023-12-29T11:46:37;98708.81;;;8.69;69.41
62402;BME280;48440;51.224;22.506;2023-12-29T11:49:02;98705.19;;;8.53;70.10
62402;BME280;48440;51.224;22.506;2023-12-29T11:51:31;98701.41;;;8.54;70.38
62402;BME280;48440;51.224;22.506;2023-12-29T11:53:57;98690.97;;;8.41;71.19
62402;BME280;48440;51.224;22.506;2023-12-29T11:56:23;98699.22;;;8.29;71.71
62402;BME280;48440;51.224;22.506;2023-12-29T11:58:48;98694.75;;;8.18;71.88
62402;BME280;48440;51.224;22.506;2023-12-29T12:01:33;98700.56;;;8.05;73.21
62402;BME280;48440;51.224;22.506;2023-12-29T12:03:58;98696.19;;;7.99;72.96
62402;BME280;48440;51.224;22.506;2023-12-29T12:06:37;98700.94;;;7.92;73.68
62402;BME280;48440;51.224;22.506;2023-12-29T12:09:21;98706.78;;;7.83;74.08
62402;BME280;48440;51.224;22.506;2023-12-29T12:11:49;98701.59;;;7.77;74.18
62402;BME280;48440;51.224;22.506;2023-12-29T12:14:52;98700.69;;;7.71;74.38
62402;BME280;48440;51.224;22.506;2023-12-29T12:17:29;98694.72;;;7.69;74.84
62402;BME280;48440;51.224;22.506;2023-12-29T12:20:10;98690.56;;;7.62;74.87
62402;BME280;48440;51.224;22.506;2023-12-29T12:22:36;98700.47;;;7.56;75.35
62402;BME280;48440;51.224;22.506;2023-12-29T12:25:03;98702.56;;;7.49;75.62
62402;BME280;48440;51.224;22.506;2023-12-29T12:27:29;98700.84;;;7.43;75.64
62402;BME280;48440;51.224;22.506;2023-12-29T12:29:56;98704.78;;;7.35;76.12
62402;BME280;48440;51.224;22.506;2023-12-29T12:32:28;98702.34;;;7.34;76.18
62402;BME280;48440;51.224;22.506;2023-12-29T12:34:55;98704.72;;;7.30;76.42
62402;BME280;48440;51.224;22.506;2023-12-29T12:37:28;98702.78;;;7.26;76.68
62402;BME280;48440;51.224;22.506;2023-12-29T12:39:53;98694.09;;;7.24;76.92
62402;BME280;48440;51.224;22.506;2023-12-29T12:42:20;98704.25;;;7.17;77.21
62402;BME280;48440;51.224;22.506;2023-12-29T12:44:56;98694.75;;;7.14;77.30
62402;BME280;48440;51.224;22.506;2023-12-29T12:47:37;98700.91;;;7.09;77.35
62402;BME280;48440;51.224;22.506;2023-12-29T12:50:04;98691.41;;;7.07;77.68
62402;BME280;48440;51.224;22.506;2023-12-29T12:52:35;98691.06;;;7.03;78.04
62402;BME280;48440;51.224;22.506;2023-12-29T12:55:02;98690.53;;;7.01;78.04
62402;BME280;48440;51.224;22.506;2023-12-29T12:57:28;98687.84;;;7.01;78.07
62402;BME280;48440;51.224;22.506;2023-12-29T12:59:55;98691.59;;;7.00;78.37
62402;BME280;48440;51.224;22.506;2023-12-29T13:02:22;98686.44;;;6.99;78.23
62402;BME280;48440;51.224;22.506;2023-12-29T13:04:48;98687.75;;;6.96;78.11
62402;BME280;48440;51.224;22.506;2023-12-29T13:07:17;98684.47;;;6.94;78.41
62402;BME280;48440;51.224;22.506;2023-12-29T13:09:44;98671.47;;;6.91;78.91